sensor_id;sensor_type;location;lat;lon;timestamp;temperature;humidity
16781;DHT22;8507;50.056;8.248;2023-02-01T00:00:18;6.30;99.90
16781;DHT22;8507;50.056;8.248;2023-02-01T00:02:44;6.30;99.90
16781;DHT22;8507;50.056;8.248;2023-02-01T00:05:10;6.30;99.90
16781;DHT22;8507;50.056;8.248;2023-02-01T00:07:36;6.30;99.90
16781;DHT22;8507;50.056;8.248;2023-02-01T00:10:03;6.20;99.90
16781;DHT22;8507;50.056;8.248;2023-02-01T00:12:30;6.20;99.90
16781;DHT22;8507;50.056;8.248;2023-02-01T00:14:55;6.20;99.90
16781;DHT22;8507;50.056;8.248;2023-02-01T00:17:21;6.20;99.90
16781;DHT22;8507;50.056;8.248;2023-02-01T00:19:46;6.20;99.90
16781;DHT22;8507;50.056;8.248;2023-02-01T00:22:12;6.20;99.90
16781;DHT22;8507;50.056;8.248;2023-02-01T00:24:38;6.10;99.90
16781;DHT22;8507;50.056;8.248;2023-02-01T00:27:03;6.10;99.90
16781;DHT22;8507;50.056;8.248;2023-02-01T00:29:29;6.10;99.90
16781;DHT22;8507;50.056;8.248;2023-02-01T00:31:54;6.10;99.90
16781;DHT22;8507;50.056;8.248;2023-02-01T00:34:20;6.10;99.90
16781;DHT22;8507;50.056;8.248;2023-02-01T00:36:46;6.10;99.90
16781;DHT22;8507;50.056;8.248;2023-02-01T00:39:12;6.10;99.90
16781;DHT22;8507;50.056;8.248;2023-02-01T00:41:37;6.10;99.90
16781;DHT22;8507;50.056;8.248;2023-02-01T00:44:03;6.10;99.90
16781;DHT22;8507;50.056;8.248;2023-02-01T00:46:29;6.10;99.90
16781;DHT22;8507;50.056;8.248;2023-02-01T00:48:55;6.10;99.90
16781;DHT22;8507;50.056;8.248;2023-02-01T00:51:24;6.10;99.90
16781;DHT22;8507;50.056;8.248;2023-02-01T00:53:50;6.10;99.90
16781;DHT22;8507;50.056;8.248;2023-02-01T00:56:16;6.10;99.90
16781;DHT22;8507;50.056;8.248;2023-02-01T00:58:41;6.10;99.90
16781;DHT22;8507;50.056;8.248;2023-02-01T01:03:40;6.10;99.90
16781;DHT22;8507;50.056;8.248;2023-02-01T01:06:09;6.10;99.90
16781;DHT22;8507;50.056;8.248;2023-02-01T01:08:36;6.10;99.90
16781;DHT22;8507;50.056;8.248;2023-02-01T01:11:22;6.10;99.90
16781;DHT22;8507;50.056;8.248;2023-02-01T01:13:50;6.10;99.90
16781;DHT22;8507;50.056;8.248;2023-02-01T01:16:16;6.20;99.90
16781;DHT22;8507;50.056;8.248;2023-02-01T01:18:43;6.20;99.90
16781;DHT22;8507;50.056;8.248;2023-02-01T01:21:10;6.20;99.90
16781;DHT22;8507;50.056;8.248;2023-02-01T01:23:36;6.20;99.90
16781;DHT22;8507;50.056;8.248;2023-02-01T01:26:13;6.20;99.90
16781;DHT22;8507;50.056;8.248;2023-02-01T01:28:39;6.20;99.90
16781;DHT22;8507;50.056;8.248;2023-02-01T01:31:08;6.20;99.90
16781;DHT22;8507;50.056;8.248;2023-02-01T01:33:34;6.20;99.90
16781;DHT22;8507;50.056;8.248;2023-02-01T01:36:00;6.20;99.90
16781;DHT22;8507;50.056;8.248;2023-02-01T01:38:25;6.20;99.90
16781;DHT22;8507;50.056;8.248;2023-02-01T01:40:51;6.30;99.90
16781;DHT22;8507;50.056;8.248;2023-02-01T01:43:18;6.30;99.90
16781;DHT22;8507;50.056;8.248;2023-02-01T01:45:48;6.30;99.90
16781;DHT22;8507;50.056;8.248;2023-02-01T01:48:24;6.30;99.90
16781;DHT22;8507;50.056;8.248;2023-02-01T01:50:54;6.30;99.90
16781;DHT22;8507;50.056;8.248;2023-02-01T01:53:27;6.30;99.90
16781;DHT22;8507;50.056;8.248;2023-02-01T01:55:54;6.30;99.90
16781;DHT22;8507;50.056;8.248;2023-02-01T01:58:23;6.30;99.90
16781;DHT22;8507;50.056;8.248;2023-02-01T02:00:49;6.30;99.90
16781;DHT22;8507;50.056;8.248;2023-02-01T02:03:19;6.30;99.90
16781;DHT22;8507;50.056;8.248;2023-02-01T02:05:48;6.20;99.90
16781;DHT22;8507;50.056;8.248;2023-02-01T02:08:14;6.20;99.90
16781;DHT22;8507;50.056;8.248;2023-02-01T02:10:40;6.20;99.90
16781;DHT22;8507;50.056;8.248;2023-02-01T02:13:25;6.20;99.90
16781;DHT22;8507;50.056;8.248;2023-02-01T02:22:01;6.00;99.90
16781;DHT22;8507;50.056;8.248;2023-02-01T02:32:42;6.00;99.90
16781;DHT22;8507;50.056;8.248;2023-02-01T02:38:02;6.00;99.90
16781;DHT22;8507;50.056;8.248;2023-02-01T02:43:27;6.00;99.90
16781;DHT22;8507;50.056;8.248;2023-02-01T02:46:22;6.00;99.90
16781;DHT22;8507;50.056;8.248;2023-02-01T02:52:03;6.00;99.90
16781;DHT22;8507;50.056;8.248;2023-02-01T02:54:50;5.90;99.90
16781;DHT22;8507;50.056;8.248;2023-02-01T02:57:28;6.00;99.90
16781;DHT22;8507;50.056;8.248;2023-02-01T03:00:19;6.00;99.90
16781;DHT22;8507;50.056;8.248;2023-02-01T03:03:04;6.00;99.90
16781;DHT22;8507;50.056;8.248;2023-02-01T03:05:49;6.00;99.90
16781;DHT22;8507;50.056;8.248;2023-02-01T03:08:19;6.00;99.90
16781;DHT22;8507;50.056;8.248;2023-02-01T03:10:53;6.00;99.90
16781;DHT22;8507;50.056;8.248;2023-02-01T03:21:08;6.10;99.90
16781;DHT22;8507;50.056;8.248;2023-02-01T03:23:36;6.10;99.90
16781;DHT22;8507;50.056;8.248;2023-02-01T03:26:08;6.10;99.90
16781;DHT22;8507;50.056;8.248;2023-02-01T03:28:36;6.10;99.90
16781;DHT22;8507;50.056;8.248;2023-02-01T03:31:04;6.10;99.90
16781;DHT22;8507;50.056;8.248;2023-02-01T03:33:30;6.10;99.90
16781;DHT22;8507;50.056;8.248;2023-02-01T03:41:50;6.00;99.90
16781;DHT22;8507;50.056;8.248;2023-02-01T03:44:41;6.00;99.90
16781;DHT22;8507;50.056;8.248;2023-02-01T03:47:18;6.00;99.90
16781;DHT22;8507;50.056;8.248;2023-02-01T03:50:03;5.90;99.90
16781;DHT22;8507;50.056;8.248;2023-02-01T03:52:39;5.90;99.90
16781;DHT22;8507;50.056;8.248;2023-02-01T03:55:07;5.90;99.90
16781;DHT22;8507;50.056;8.248;2023-02-01T03:57:35;5.90;99.90
16781;DHT22;8507;50.056;8.248;2023-02-01T04:00:06;5.90;99.90
16781;DHT22;8507;50.056;8.248;2023-02-01T04:02:33;5.90;99.90
16781;DHT22;8507;50.056;8.248;2023-02-01T04:04:58;5.90;99.90
16781;DHT22;8507;50.056;8.248;2023-02-01T04:07:24;6.00;99.90
16781;DHT22;8507;50.056;8.248;2023-02-01T04:09:49;6.00;99.90
16781;DHT22;8507;50.056;8.248;2023-02-01T04:12:15;6.00;99.90
16781;DHT22;8507;50.056;8.248;2023-02-01T04:14:40;6.00;99.90
16781;DHT22;8507;50.056;8.248;2023-02-01T04:17:06;6.10;99.90
16781;DHT22;8507;50.056;8.248;2023-02-01T04:19:31;6.10;99.90
16781;DHT22;8507;50.056;8.248;2023-02-01T04:21:57;6.10;99.90
16781;DHT22;8507;50.056;8.248;2023-02-01T04:24:22;6.10;99.90
16781;DHT22;8507;50.056;8.248;2023-02-01T04:26:48;6.10;99.90
16781;DHT22;8507;50.056;8.248;2023-02-01T04:29:13;6.10;99.90
16781;DHT22;8507;50.056;8.248;2023-02-01T04:31:39;6.10;99.90
16781;DHT22;8507;50.056;8.248;2023-02-01T04:34:05;6.20;99.90
16781;DHT22;8507;50.056;8.248;2023-02-01T04:36:30;6.20;99.90
16781;DHT22;8507;50.056;8.248;2023-02-01T04:38:56;6.20;99.90
16781;DHT22;8507;50.056;8.248;2023-02-01T04:41:21;6.10;99.90
16781;DHT22;8507;50.056;8.248;2023-02-01T04:43:49;6.10;99.90
16781;DHT22;8507;50.056;8.248;2023-02-01T04:46:15;6.10;99.90
16781;DHT22;8507;50.056;8.248;2023-02-01T04:48:41;6.10;99.90
16781;DHT22;8507;50.056;8.248;2023-02-01T04:51:09;6.10;99.90
16781;DHT22;8507;50.056;8.248;2023-02-01T04:53:35;6.10;99.90
16781;DHT22;8507;50.056;8.248;2023-02-01T04:56:01;6.00;99.90
16781;DHT22;8507;50.056;8.248;2023-02-01T04:58:26;6.00;99.90
16781;DHT22;8507;50.056;8.248;2023-02-01T05:00:52;6.00;99.90
16781;DHT22;8507;50.056;8.248;2023-02-01T05:03:18;6.00;99.90
16781;DHT22;8507;50.056;8.248;2023-02-01T05:05:44;6.00;99.90
16781;DHT22;8507;50.056;8.248;2023-02-01T05:08:09;6.00;99.90
16781;DHT22;8507;50.056;8.248;2023-02-01T05:10:35;6.00;99.90
16781;DHT22;8507;50.056;8.248;2023-02-01T05:13:01;6.10;99.90
16781;DHT22;8507;50.056;8.248;2023-02-01T05:15:45;6.10;99.90
16781;DHT22;8507;50.056;8.248;2023-02-01T05:18:12;6.10;99.90
16781;DHT22;8507;50.056;8.248;2023-02-01T05:20:37;6.10;99.90
16781;DHT22;8507;50.056;8.248;2023-02-01T05:23:03;6.10;99.90
16781;DHT22;8507;50.056;8.248;2023-02-01T05:25:29;6.20;99.90
16781;DHT22;8507;50.056;8.248;2023-02-01T05:27:54;6.20;99.90
16781;DHT22;8507;50.056;8.248;2023-02-01T05:30:20;6.20;99.90
16781;DHT22;8507;50.056;8.248;2023-02-01T05:32:49;6.20;99.90
16781;DHT22;8507;50.056;8.248;2023-02-01T05:35:15;6.20;99.90
16781;DHT22;8507;50.056;8.248;2023-02-01T05:37:40;6.20;99.90
16781;DHT22;8507;50.056;8.248;2023-02-01T05:40:07;6.20;99.90
16781;DHT22;8507;50.056;8.248;2023-02-01T05:42:33;6.20;99.90
16781;DHT22;8507;50.056;8.248;2023-02-01T05:44:58;6.20;99.90
16781;DHT22;8507;50.056;8.248;2023-02-01T05:47:24;6.20;99.90
16781;DHT22;8507;50.056;8.248;2023-02-01T05:49:49;6.20;99.90
16781;DHT22;8507;50.056;8.248;2023-02-01T05:52:15;6.10;99.90
16781;DHT22;8507;50.056;8.248;2023-02-01T05:54:45;6.10;99.90
16781;DHT22;8507;50.056;8.248;2023-02-01T05:57:12;6.00;99.90
16781;DHT22;8507;50.056;8.248;2023-02-01T05:59:38;5.90;99.90
16781;DHT22;8507;50.056;8.248;2023-02-01T06:02:07;5.90;99.90
16781;DHT22;8507;50.056;8.248;2023-02-01T06:04:33;5.80;99.90
16781;DHT22;8507;50.056;8.248;2023-02-01T06:06:58;5.80;99.90
16781;DHT22;8507;50.056;8.248;2023-02-01T06:09:24;5.80;99.90
16781;DHT22;8507;50.056;8.248;2023-02-01T06:11:49;5.80;99.90
16781;DHT22;8507;50.056;8.248;2023-02-01T06:14:15;5.70;99.90
16781;DHT22;8507;50.056;8.248;2023-02-01T06:16:40;5.70;99.90
16781;DHT22;8507;50.056;8.248;2023-02-01T06:19:06;5.60;99.90
16781;DHT22;8507;50.056;8.248;2023-02-01T06:21:32;5.60;99.90
16781;DHT22;8507;50.056;8.248;2023-02-01T06:23:58;5.50;99.90
16781;DHT22;8507;50.056;8.248;2023-02-01T06:26:24;5.40;99.90
16781;DHT22;8507;50.056;8.248;2023-02-01T06:28:50;5.40;99.90
16781;DHT22;8507;50.056;8.248;2023-02-01T06:31:16;5.30;99.90
16781;DHT22;8507;50.056;8.248;2023-02-01T06:33:42;5.30;99.90
16781;DHT22;8507;50.056;8.248;2023-02-01T06:36:09;5.20;99.90
16781;DHT22;8507;50.056;8.248;2023-02-01T06:38:36;5.20;99.90
16781;DHT22;8507;50.056;8.248;2023-02-01T06:41:02;5.10;99.90
16781;DHT22;8507;50.056;8.248;2023-02-01T06:43:28;5.00;99.90
16781;DHT22;8507;50.056;8.248;2023-02-01T06:46:03;5.00;99.90
16781;DHT22;8507;50.056;8.248;2023-02-01T06:48:30;5.10;99.90
16781;DHT22;8507;50.056;8.248;2023-02-01T06:50:55;5.00;99.90
16781;DHT22;8507;50.056;8.248;2023-02-01T06:53:21;5.00;99.90
16781;DHT22;8507;50.056;8.248;2023-02-01T06:56:02;4.90;99.90
16781;DHT22;8507;50.056;8.248;2023-02-01T06:58:29;4.90;99.90
16781;DHT22;8507;50.056;8.248;2023-02-01T07:00:55;4.90;99.90
16781;DHT22;8507;50.056;8.248;2023-02-01T07:03:21;4.90;99.90
16781;DHT22;8507;50.056;8.248;2023-02-01T07:05:46;4.90;99.90
16781;DHT22;8507;50.056;8.248;2023-02-01T07:08:12;4.90;99.90
16781;DHT22;8507;50.056;8.248;2023-02-01T07:10:38;4.80;99.90
16781;DHT22;8507;50.056;8.248;2023-02-01T07:13:03;4.80;99.90
16781;DHT22;8507;50.056;8.248;2023-02-01T07:15:29;4.80;99.90
16781;DHT22;8507;50.056;8.248;2023-02-01T07:17:55;4.70;99.90
16781;DHT22;8507;50.056;8.248;2023-02-01T07:20:21;4.80;99.90
16781;DHT22;8507;50.056;8.248;2023-02-01T07:22:46;4.80;99.90
16781;DHT22;8507;50.056;8.248;2023-02-01T07:25:12;4.90;99.90
16781;DHT22;8507;50.056;8.248;2023-02-01T07:27:38;4.90;99.90
16781;DHT22;8507;50.056;8.248;2023-02-01T07:30:04;4.90;99.90
16781;DHT22;8507;50.056;8.248;2023-02-01T07:32:30;4.90;99.90
16781;DHT22;8507;50.056;8.248;2023-02-01T07:34:57;4.90;99.90
16781;DHT22;8507;50.056;8.248;2023-02-01T07:37:23;5.00;99.90
16781;DHT22;8507;50.056;8.248;2023-02-01T07:39:51;5.00;99.90
16781;DHT22;8507;50.056;8.248;2023-02-01T07:42:18;5.10;99.90
16781;DHT22;8507;50.056;8.248;2023-02-01T07:44:43;5.10;99.90
16781;DHT22;8507;50.056;8.248;2023-02-01T07:47:09;5.20;99.90
16781;DHT22;8507;50.056;8.248;2023-02-01T07:49:34;5.30;99.90
16781;DHT22;8507;50.056;8.248;2023-02-01T07:52:00;5.30;99.90
16781;DHT22;8507;50.056;8.248;2023-02-01T07:54:26;5.40;99.90
16781;DHT22;8507;50.056;8.248;2023-02-01T07:56:52;5.50;99.90
16781;DHT22;8507;50.056;8.248;2023-02-01T07:59:17;5.60;99.90
16781;DHT22;8507;50.056;8.248;2023-02-01T08:01:43;5.60;99.90
16781;DHT22;8507;50.056;8.248;2023-02-01T08:04:11;5.70;99.90
16781;DHT22;8507;50.056;8.248;2023-02-01T08:06:38;5.80;99.90
16781;DHT22;8507;50.056;8.248;2023-02-01T08:09:04;5.90;99.90
16781;DHT22;8507;50.056;8.248;2023-02-01T08:11:31;5.90;99.90
16781;DHT22;8507;50.056;8.248;2023-02-01T08:13:58;6.00;99.90
16781;DHT22;8507;50.056;8.248;2023-02-01T08:16:24;6.10;99.90
16781;DHT22;8507;50.056;8.248;2023-02-01T08:18:50;6.20;99.90
16781;DHT22;8507;50.056;8.248;2023-02-01T08:21:27;6.30;99.90
16781;DHT22;8507;50.056;8.248;2023-02-01T08:24:03;6.40;99.90
16781;DHT22;8507;50.056;8.248;2023-02-01T08:26:28;6.40;99.90
16781;DHT22;8507;50.056;8.248;2023-02-01T08:28:59;6.50;99.90
16781;DHT22;8507;50.056;8.248;2023-02-01T08:31:26;6.60;99.90
16781;DHT22;8507;50.056;8.248;2023-02-01T08:34:00;6.80;99.90
16781;DHT22;8507;50.056;8.248;2023-02-01T08:36:28;6.90;99.90
16781;DHT22;8507;50.056;8.248;2023-02-01T08:38:54;7.10;99.90
16781;DHT22;8507;50.056;8.248;2023-02-01T08:41:22;7.10;99.90
16781;DHT22;8507;50.056;8.248;2023-02-01T08:43:49;7.00;99.90
16781;DHT22;8507;50.056;8.248;2023-02-01T08:46:15;7.00;99.90
16781;DHT22;8507;50.056;8.248;2023-02-01T08:48:41;7.00;99.90
16781;DHT22;8507;50.056;8.248;2023-02-01T08:51:11;6.90;99.90
16781;DHT22;8507;50.056;8.248;2023-02-01T08:53:38;7.00;99.90
16781;DHT22;8507;50.056;8.248;2023-02-01T08:56:07;7.00;99.90
16781;DHT22;8507;50.056;8.248;2023-02-01T08:58:32;7.00;99.90
16781;DHT22;8507;50.056;8.248;2023-02-01T09:01:09;7.00;99.90
16781;DHT22;8507;50.056;8.248;2023-02-01T09:03:36;7.00;99.90
16781;DHT22;8507;50.056;8.248;2023-02-01T09:06:07;7.10;99.90
16781;DHT22;8507;50.056;8.248;2023-02-01T09:08:34;7.00;99.90
16781;DHT22;8507;50.056;8.248;2023-02-01T09:11:07;7.10;99.90
16781;DHT22;8507;50.056;8.248;2023-02-01T09:13:33;7.10;99.90
16781;DHT22;8507;50.056;8.248;2023-02-01T09:16:02;7.10;99.90
16781;DHT22;8507;50.056;8.248;2023-02-01T09:18:27;7.10;99.90
16781;DHT22;8507;50.056;8.248;2023-02-01T09:20:53;7.00;99.90
16781;DHT22;8507;50.056;8.248;2023-02-01T09:23:19;7.10;99.90
16781;DHT22;8507;50.056;8.248;2023-02-01T09:25:46;7.10;99.90
16781;DHT22;8507;50.056;8.248;2023-02-01T09:28:11;7.10;99.90
16781;DHT22;8507;50.056;8.248;2023-02-01T09:30:37;7.10;99.90
16781;DHT22;8507;50.056;8.248;2023-02-01T09:33:03;7.10;99.90
16781;DHT22;8507;50.056;8.248;2023-02-01T09:35:29;7.10;99.90
16781;DHT22;8507;50.056;8.248;2023-02-01T09:37:55;7.10;99.90
16781;DHT22;8507;50.056;8.248;2023-02-01T09:40:21;7.10;99.90
16781;DHT22;8507;50.056;8.248;2023-02-01T09:47:59;7.20;99.90
16781;DHT22;8507;50.056;8.248;2023-02-01T09:50:34;7.20;99.90
16781;DHT22;8507;50.056;8.248;2023-02-01T09:53:28;7.10;99.90
16781;DHT22;8507;50.056;8.248;2023-02-01T09:55:59;7.20;99.90
16781;DHT22;8507;50.056;8.248;2023-02-01T09:58:38;7.10;99.90
16781;DHT22;8507;50.056;8.248;2023-02-01T10:01:14;7.20;99.90
16781;DHT22;8507;50.056;8.248;2023-02-01T10:03:40;7.20;99.90
16781;DHT22;8507;50.056;8.248;2023-02-01T10:14:59;7.50;99.90
16781;DHT22;8507;50.056;8.248;2023-02-01T10:17:49;7.50;99.90
16781;DHT22;8507;50.056;8.248;2023-02-01T10:20:29;7.40;99.90
16781;DHT22;8507;50.056;8.248;2023-02-01T10:26:25;7.40;99.90
16781;DHT22;8507;50.056;8.248;2023-02-01T10:28:53;7.40;99.90
16781;DHT22;8507;50.056;8.248;2023-02-01T10:31:24;7.40;99.90
16781;DHT22;8507;50.056;8.248;2023-02-01T10:33:55;7.40;99.90
16781;DHT22;8507;50.056;8.248;2023-02-01T10:36:42;7.40;99.90
16781;DHT22;8507;50.056;8.248;2023-02-01T10:39:14;7.40;99.90
16781;DHT22;8507;50.056;8.248;2023-02-01T10:41:40;7.40;99.90
16781;DHT22;8507;50.056;8.248;2023-02-01T10:44:13;7.30;99.90
16781;DHT22;8507;50.056;8.248;2023-02-01T10:46:39;7.30;99.90
16781;DHT22;8507;50.056;8.248;2023-02-01T10:49:08;7.30;99.90
16781;DHT22;8507;50.056;8.248;2023-02-01T10:51:48;7.30;99.90
16781;DHT22;8507;50.056;8.248;2023-02-01T10:54:19;7.30;99.90
16781;DHT22;8507;50.056;8.248;2023-02-01T10:56:46;7.30;99.90
16781;DHT22;8507;50.056;8.248;2023-02-01T10:59:18;7.30;99.90
16781;DHT22;8507;50.056;8.248;2023-02-01T11:01:46;7.30;99.90
16781;DHT22;8507;50.056;8.248;2023-02-01T11:04:20;7.30;99.90
16781;DHT22;8507;50.056;8.248;2023-02-01T11:06:48;7.30;99.90
16781;DHT22;8507;50.056;8.248;2023-02-01T11:09:25;7.40;99.90
16781;DHT22;8507;50.056;8.248;2023-02-01T11:14:18;7.40;99.90
16781;DHT22;8507;50.056;8.248;2023-02-01T11:16:49;7.40;99.90
16781;DHT22;8507;50.056;8.248;2023-02-01T11:19:16;7.40;99.90
16781;DHT22;8507;50.056;8.248;2023-02-01T11:21:43;7.40;99.90
16781;DHT22;8507;50.056;8.248;2023-02-01T11:24:28;7.50;99.90
16781;DHT22;8507;50.056;8.248;2023-02-01T11:26:56;7.60;99.90
16781;DHT22;8507;50.056;8.248;2023-02-01T11:29:24;7.60;99.90
16781;DHT22;8507;50.056;8.248;2023-02-01T11:31:57;7.70;99.90
16781;DHT22;8507;50.056;8.248;2023-02-01T11:34:27;7.70;99.90
16781;DHT22;8507;50.056;8.248;2023-02-01T11:36:58;7.60;99.90
16781;DHT22;8507;50.056;8.248;2023-02-01T11:39:29;7.70;99.90
16781;DHT22;8507;50.056;8.248;2023-02-01T11:42:14;7.80;99.90
16781;DHT22;8507;50.056;8.248;2023-02-01T11:44:44;7.80;99.90
16781;DHT22;8507;50.056;8.248;2023-02-01T11:47:30;7.80;99.90
16781;DHT22;8507;50.056;8.248;2023-02-01T11:50:00;7.70;99.90
16781;DHT22;8507;50.056;8.248;2023-02-01T12:03:24;7.70;99.90
16781;DHT22;8507;50.056;8.248;2023-02-01T12:11:44;7.80;99.90
16781;DHT22;8507;50.056;8.248;2023-02-01T12:14:31;7.80;99.90
16781;DHT22;8507;50.056;8.248;2023-02-01T12:31:15;7.90;99.90
16781;DHT22;8507;50.056;8.248;2023-02-01T12:34:30;7.90;99.90
16781;DHT22;8507;50.056;8.248;2023-02-01T12:42:24;7.80;99.90
16781;DHT22;8507;50.056;8.248;2023-02-01T12:45:12;7.80;99.90
16781;DHT22;8507;50.056;8.248;2023-02-01T12:50:41;7.90;99.90
16781;DHT22;8507;50.056;8.248;2023-02-01T12:54:03;7.90;99.90
16781;DHT22;8507;50.056;8.248;2023-02-01T12:56:07;7.90;99.90
16781;DHT22;8507;50.056;8.248;2023-02-01T12:58:38;8.00;99.90
16781;DHT22;8507;50.056;8.248;2023-02-01T13:06:52;8.10;99.90
16781;DHT22;8507;50.056;8.248;2023-02-01T13:09:30;8.10;99.90
16781;DHT22;8507;50.056;8.248;2023-02-01T13:12:04;8.20;99.90
16781;DHT22;8507;50.056;8.248;2023-02-01T13:14:53;8.30;99.90
16781;DHT22;8507;50.056;8.248;2023-02-01T13:17:25;8.30;99.90
16781;DHT22;8507;50.056;8.248;2023-02-01T13:20:06;8.30;99.90
16781;DHT22;8507;50.056;8.248;2023-02-01T13:22:41;8.20;99.90
16781;DHT22;8507;50.056;8.248;2023-02-01T13:25:54;8.20;99.90
16781;DHT22;8507;50.056;8.248;2023-02-01T13:28:18;8.30;99.90
16781;DHT22;8507;50.056;8.248;2023-02-01T13:30:58;8.20;99.90
16781;DHT22;8507;50.056;8.248;2023-02-01T13:33:54;8.30;99.90
16781;DHT22;8507;50.056;8.248;2023-02-01T13:36:47;8.30;99.90
16781;DHT22;8507;50.056;8.248;2023-02-01T13:41:54;8.40;99.90
16781;DHT22;8507;50.056;8.248;2023-02-01T13:44:29;8.50;99.90
16781;DHT22;8507;50.056;8.248;2023-02-01T13:46:59;8.60;99.90
16781;DHT22;8507;50.056;8.248;2023-02-01T13:49:32;8.60;99.90
16781;DHT22;8507;50.056;8.248;2023-02-01T13:52:02;8.70;99.90
16781;DHT22;8507;50.056;8.248;2023-02-01T13:54:36;8.70;99.90
16781;DHT22;8507;50.056;8.248;2023-02-01T13:57:04;8.70;99.90
16781;DHT22;8507;50.056;8.248;2023-02-01T13:59:49;8.70;99.90
16781;DHT22;8507;50.056;8.248;2023-02-01T14:05:10;8.60;99.90
16781;DHT22;8507;50.056;8.248;2023-02-01T14:07:36;8.70;99.90
16781;DHT22;8507;50.056;8.248;2023-02-01T14:18:54;8.70;99.90
16781;DHT22;8507;50.056;8.248;2023-02-01T14:21:29;8.60;99.90
16781;DHT22;8507;50.056;8.248;2023-02-01T14:23:59;8.60;99.90
16781;DHT22;8507;50.056;8.248;2023-02-01T14:28:52;8.60;99.90
16781;DHT22;8507;50.056;8.248;2023-02-01T14:33:59;8.60;99.90
16781;DHT22;8507;50.056;8.248;2023-02-01T14:36:26;8.60;99.90
16781;DHT22;8507;50.056;8.248;2023-02-01T14:38:53;8.60;99.90
16781;DHT22;8507;50.056;8.248;2023-02-01T14:41:26;8.60;99.90
16781;DHT22;8507;50.056;8.248;2023-02-01T14:52:20;8.50;99.90
16781;DHT22;8507;50.056;8.248;2023-02-01T14:54:54;8.60;99.90
16781;DHT22;8507;50.056;8.248;2023-02-01T14:57:22;8.60;99.90
16781;DHT22;8507;50.056;8.248;2023-02-01T14:59:54;8.60;99.90
16781;DHT22;8507;50.056;8.248;2023-02-01T15:02:26;8.60;99.90
16781;DHT22;8507;50.056;8.248;2023-02-01T15:04:56;8.60;99.90
16781;DHT22;8507;50.056;8.248;2023-02-01T15:07:23;8.70;99.90
16781;DHT22;8507;50.056;8.248;2023-02-01T15:09:50;8.70;99.90
16781;DHT22;8507;50.056;8.248;2023-02-01T15:12:24;8.80;99.90
16781;DHT22;8507;50.056;8.248;2023-02-01T15:17:36;8.80;99.90
16781;DHT22;8507;50.056;8.248;2023-02-01T15:20:04;8.80;99.90
16781;DHT22;8507;50.056;8.248;2023-02-01T15:22:36;8.70;99.90
16781;DHT22;8507;50.056;8.248;2023-02-01T15:25:02;8.70;99.90
16781;DHT22;8507;50.056;8.248;2023-02-01T15:27:29;8.70;99.90
16781;DHT22;8507;50.056;8.248;2023-02-01T15:30:06;8.70;99.90
16781;DHT22;8507;50.056;8.248;2023-02-01T15:32:35;8.70;99.90
16781;DHT22;8507;50.056;8.248;2023-02-01T15:35:01;8.70;99.90
16781;DHT22;8507;50.056;8.248;2023-02-01T15:37:28;8.60;99.90
16781;DHT22;8507;50.056;8.248;2023-02-01T15:42:55;8.50;99.90
16781;DHT22;8507;50.056;8.248;2023-02-01T15:45:25;8.50;99.90
16781;DHT22;8507;50.056;8.248;2023-02-01T15:47:52;8.50;99.90
16781;DHT22;8507;50.056;8.248;2023-02-01T15:50:20;8.50;99.90
16781;DHT22;8507;50.056;8.248;2023-02-01T15:52:48;8.50;99.90
16781;DHT22;8507;50.056;8.248;2023-02-01T15:55:36;8.50;99.90
16781;DHT22;8507;50.056;8.248;2023-02-01T15:58:15;8.40;99.90
16781;DHT22;8507;50.056;8.248;2023-02-01T16:00:48;8.40;99.90
16781;DHT22;8507;50.056;8.248;2023-02-01T16:03:44;8.40;99.90
16781;DHT22;8507;50.056;8.248;2023-02-01T16:06:30;8.40;99.90
16781;DHT22;8507;50.056;8.248;2023-02-01T16:09:17;8.40;99.90
16781;DHT22;8507;50.056;8.248;2023-02-01T16:11:48;8.30;99.90
16781;DHT22;8507;50.056;8.248;2023-02-01T16:14:14;8.30;99.90
16781;DHT22;8507;50.056;8.248;2023-02-01T16:16:40;8.30;99.90
16781;DHT22;8507;50.056;8.248;2023-02-01T16:19:06;8.30;99.90
16781;DHT22;8507;50.056;8.248;2023-02-01T16:21:31;8.20;99.90
16781;DHT22;8507;50.056;8.248;2023-02-01T16:23:57;8.20;99.90
16781;DHT22;8507;50.056;8.248;2023-02-01T16:26:24;8.10;99.90
16781;DHT22;8507;50.056;8.248;2023-02-01T16:28:50;8.10;99.90
16781;DHT22;8507;50.056;8.248;2023-02-01T16:31:17;8.10;99.90
16781;DHT22;8507;50.056;8.248;2023-02-01T16:33:50;8.00;99.90
16781;DHT22;8507;50.056;8.248;2023-02-01T16:36:16;8.00;99.90
16781;DHT22;8507;50.056;8.248;2023-02-01T16:38:42;8.00;99.90
16781;DHT22;8507;50.056;8.248;2023-02-01T16:41:16;8.00;99.90
16781;DHT22;8507;50.056;8.248;2023-02-01T16:43:41;8.00;99.90
16781;DHT22;8507;50.056;8.248;2023-02-01T16:46:13;7.90;99.90
16781;DHT22;8507;50.056;8.248;2023-02-01T16:48:41;7.90;99.90
16781;DHT22;8507;50.056;8.248;2023-02-01T16:51:13;7.90;99.90
16781;DHT22;8507;50.056;8.248;2023-02-01T16:53:39;7.90;99.90
16781;DHT22;8507;50.056;8.248;2023-02-01T16:56:14;7.90;99.90
16781;DHT22;8507;50.056;8.248;2023-02-01T16:58:40;7.90;99.90
16781;DHT22;8507;50.056;8.248;2023-02-01T17:01:11;7.90;99.90
16781;DHT22;8507;50.056;8.248;2023-02-01T17:03:38;7.90;99.90
16781;DHT22;8507;50.056;8.248;2023-02-01T17:06:04;7.90;99.90
16781;DHT22;8507;50.056;8.248;2023-02-01T17:08:33;7.90;99.90
16781;DHT22;8507;50.056;8.248;2023-02-01T17:10:59;7.90;99.90
16781;DHT22;8507;50.056;8.248;2023-02-01T17:13:25;7.90;99.90
16781;DHT22;8507;50.056;8.248;2023-02-01T17:16:03;7.80;99.90
16781;DHT22;8507;50.056;8.248;2023-02-01T17:18:32;7.80;99.90
16781;DHT22;8507;50.056;8.248;2023-02-01T17:20:59;7.80;99.90
16781;DHT22;8507;50.056;8.248;2023-02-01T17:23:26;7.80;99.90
16781;DHT22;8507;50.056;8.248;2023-02-01T17:25:52;7.80;99.90
16781;DHT22;8507;50.056;8.248;2023-02-01T17:28:18;7.80;99.90
16781;DHT22;8507;50.056;8.248;2023-02-01T17:30:43;7.80;99.90
16781;DHT22;8507;50.056;8.248;2023-02-01T17:33:20;7.80;99.90
16781;DHT22;8507;50.056;8.248;2023-02-01T17:35:46;7.80;99.90
16781;DHT22;8507;50.056;8.248;2023-02-01T17:38:13;7.80;99.90
16781;DHT22;8507;50.056;8.248;2023-02-01T17:40:39;7.80;99.90
16781;DHT22;8507;50.056;8.248;2023-02-01T17:43:05;7.80;99.90
16781;DHT22;8507;50.056;8.248;2023-02-01T17:48:01;7.80;99.90
16781;DHT22;8507;50.056;8.248;2023-02-01T17:50:30;7.70;99.90
16781;DHT22;8507;50.056;8.248;2023-02-01T17:52:56;7.70;99.90
16781;DHT22;8507;50.056;8.248;2023-02-01T17:55:24;7.60;99.90
16781;DHT22;8507;50.056;8.248;2023-02-01T17:57:50;7.60;99.90
16781;DHT22;8507;50.056;8.248;2023-02-01T18:00:17;7.50;99.90
16781;DHT22;8507;50.056;8.248;2023-02-01T18:02:44;7.50;99.90
16781;DHT22;8507;50.056;8.248;2023-02-01T18:07:40;7.50;99.90
16781;DHT22;8507;50.056;8.248;2023-02-01T18:10:06;7.50;99.90
16781;DHT22;8507;50.056;8.248;2023-02-01T18:12:32;7.50;99.90
16781;DHT22;8507;50.056;8.248;2023-02-01T18:14:58;7.50;99.90
16781;DHT22;8507;50.056;8.248;2023-02-01T18:17:23;7.50;99.90
16781;DHT22;8507;50.056;8.248;2023-02-01T18:19:49;7.50;99.90
16781;DHT22;8507;50.056;8.248;2023-02-01T18:22:16;7.40;99.90
16781;DHT22;8507;50.056;8.248;2023-02-01T18:24:42;7.40;99.90
16781;DHT22;8507;50.056;8.248;2023-02-01T18:27:08;7.40;99.90
16781;DHT22;8507;50.056;8.248;2023-02-01T18:29:33;7.40;99.90
16781;DHT22;8507;50.056;8.248;2023-02-01T18:31:58;7.40;99.90
16781;DHT22;8507;50.056;8.248;2023-02-01T18:34:24;7.40;99.90
16781;DHT22;8507;50.056;8.248;2023-02-01T18:36:51;7.40;99.90
16781;DHT22;8507;50.056;8.248;2023-02-01T18:39:18;7.40;99.90